Time;durP1;ratioP1;P1;durP2;ratioP2;P2;SDS_P1;SDS_P2;PMS_P1;PMS_P2;Temp;Humidity;BMP_temperature;BMP_pressure;BME280_temperature;BME280_humidity;BME280_pressure;Samples;Min_cycle;Max_cycle;Signal;HPM_P1;HPM_P2
2022/06/07 00:01:01;;;;;;;11.52;4.88;;;;;;;19.72;79.28;99634.69;3139604;28;20048;-73
2022/06/07 00:02:37;;;;;;;10.55;4.63;;;;;;;19.73;79.54;99636.41;3047604;28;20532;-74
2022/06/07 00:04:09;;;;;;;12.93;5.63;;;;;;;19.68;79.84;99631.50;3140563;28;20491;-74
2022/06/07 00:05:43;;;;;;;11.32;4.90;;;;;;;19.69;79.91;99630.50;3141199;28;20484;-69
2022/06/07 00:07:15;;;;;;;7.82;5.22;;;;;;;19.69;79.93;99641.09;3136962;28;20060;-69
2022/06/07 00:08:47;;;;;;;8.80;5.35;;;;;;;19.69;80.08;99640.25;3140575;28;20052;-70
2022/06/07 00:10:19;;;;;;;9.88;5.40;;;;;;;19.68;80.20;99642.06;3133905;28;20105;-70
2022/06/07 00:11:51;;;;;;;9.98;6.20;;;;;;;19.68;80.12;99646.50;3140202;28;20052;-69
2022/06/07 00:13:23;;;;;;;9.93;5.60;;;;;;;19.67;80.06;99642.19;3140510;28;20417;-71
2022/06/07 00:14:55;;;;;;;10.65;4.88;;;;;;;19.66;80.13;99641.34;3144475;28;20053;-70
2022/06/07 00:16:27;;;;;;;13.52;5.80;;;;;;;19.62;80.44;99639.91;3140348;28;20055;-70
2022/06/07 00:18:00;;;;;;;9.02;5.32;;;;;;;19.58;80.38;99638.53;3140374;28;20499;-71
2022/06/07 00:19:32;;;;;;;7.95;5.20;;;;;;;19.54;80.77;99635.28;3140269;28;20070;-70
2022/06/07 00:21:04;;;;;;;13.85;7.05;;;;;;;19.45;81.01;99627.31;3140455;28;20140;-71
2022/06/07 00:22:36;;;;;;;10.07;5.72;;;;;;;19.50;81.19;99633.03;3134494;28;20052;-71
2022/06/07 00:24:08;;;;;;;10.88;6.13;;;;;;;19.47;81.21;99630.66;3140071;28;20052;-71
2022/06/07 00:25:41;;;;;;;9.75;5.80;;;;;;;19.48;81.17;99627.03;3140167;28;20052;-73
2022/06/07 00:27:14;;;;;;;11.55;5.82;;;;;;;19.50;80.79;99635.69;3140159;28;20056;-73
2022/06/07 00:28:45;;;;;;;10.82;5.40;;;;;;;19.51;80.82;99634.69;3140163;28;20144;-73
2022/06/07 00:30:17;;;;;;;13.43;6.40;;;;;;;19.50;81.14;99625.94;3140131;28;20060;-73
2022/06/07 00:31:49;;;;;;;11.00;5.50;;;;;;;19.54;81.01;99637.91;3139558;28;20546;-72
2022/06/07 00:33:24;;;;;;;10.73;5.30;;;;;;;19.57;80.73;99636.81;3140095;28;20264;-73
2022/06/07 00:34:56;;;;;;;12.60;5.35;;;;;;;19.58;80.70;99627.09;3134321;28;20060;-74
2022/06/07 00:36:29;;;;;;;9.15;5.50;;;;;;;19.58;80.50;99627.94;3139860;28;20053;-70
2022/06/07 00:38:01;;;;;;;10.98;5.22;;;;;;;19.55;80.33;99618.47;3140235;28;20052;-73
2022/06/07 00:39:32;;;;;;;9.88;5.97;;;;;;;19.59;80.17;99626.97;3140333;28;20568;-72
2022/06/07 00:41:04;;;;;;;11.82;6.55;;;;;;;19.59;80.24;99624.34;3139619;28;20052;-71
2022/06/07 00:42:36;;;;;;;10.25;4.97;;;;;;;19.57;80.29;99628.06;3139580;28;20052;-72
2022/06/07 00:44:27;;;;;;;8.13;5.32;;;;;;;19.59;80.02;99624.34;3139552;28;20125;-71
2022/06/07 00:45:59;;;;;;;7.95;5.65;;;;;;;19.59;80.13;99636.72;3140134;28;20533;-73
2022/06/07 00:47:32;;;;;;;9.18;5.32;;;;;;;19.58;80.03;99635.00;3139639;28;20056;-73
2022/06/07 00:49:04;;;;;;;7.22;5.25;;;;;;;19.54;80.27;99632.63;3139277;28;20048;-73
2022/06/07 00:50:44;;;;;;;11.38;6.15;;;;;;;19.51;80.47;99629.41;3140359;28;20049;-72
2022/06/07 00:52:16;;;;;;;10.07;5.72;;;;;;;19.49;80.23;99634.00;3139978;28;20502;-72
2022/06/07 00:53:48;;;;;;;8.45;5.50;;;;;;;19.48;80.19;99638.44;3140030;28;20048;-73
2022/06/07 00:55:20;;;;;;;11.38;5.55;;;;;;;19.46;80.23;99635.13;3137544;28;20060;-72
2022/06/07 00:56:52;;;;;;;9.20;5.30;;;;;;;19.38;80.18;99621.72;3139824;28;20049;-72
2022/06/07 00:58:25;;;;;;;9.82;5.30;;;;;;;19.42;79.91;99638.13;3139310;28;20044;-72
2022/06/07 00:59:56;;;;;;;11.25;6.13;;;;;;;19.42;79.74;99632.84;3139714;28;20124;-72
2022/06/07 01:01:28;;;;;;;10.75;5.95;;;;;;;19.39;79.84;99622.53;3139618;28;20129;-70
2022/06/07 01:03:00;;;;;;;10.73;6.18;;;;;;;19.37;79.64;99635.03;3138629;28;20559;-72
2022/06/07 01:04:34;;;;;;;9.57;5.88;;;;;;;19.38;79.68;99627.00;3139107;28;20071;-71
2022/06/07 01:11:32;;;;;;;12.90;6.50;;;;;;;19.27;80.10;99614.69;3144057;28;20088;-70
2022/06/07 01:13:04;;;;;;;11.50;6.60;;;;;;;19.28;79.85;99616.34;3138982;28;20052;-71
2022/06/07 01:14:35;;;;;;;15.90;6.78;;;;;;;19.27;79.68;99608.56;3139168;28;20048;-70
2022/06/07 01:16:09;;;;;;;11.48;6.90;;;;;;;19.26;79.53;99614.84;3135972;28;20052;-71
2022/06/07 01:17:41;;;;;;;11.68;6.43;;;;;;;19.28;79.60;99616.34;3139646;28;20055;-70
2022/06/07 01:19:13;;;;;;;9.18;6.75;;;;;;;19.26;79.28;99610.38;3142025;28;20052;-70
2022/06/07 01:20:47;;;;;;;9.98;6.15;;;;;;;19.27;79.30;99613.84;3142458;28;20048;-70
2022/06/07 01:22:21;;;;;;;13.88;5.93;;;;;;;19.28;79.07;99613.72;3142309;28;20052;-69
2022/06/07 01:23:53;;;;;;;15.77;6.18;;;;;;;19.27;78.98;99612.03;3142056;28;20154;-71
2022/06/07 01:25:26;;;;;;;11.55;5.95;;;;;;;19.24;78.83;99614.94;3141955;28;20129;-71
2022/06/07 01:26:58;;;;;;;13.65;6.32;;;;;;;19.24;78.71;99625.50;3142088;28;20469;-70
2022/06/07 01:28:30;;;;;;;11.07;6.22;;;;;;;19.26;78.60;99610.38;3142293;28;20086;-71
2022/06/07 01:30:02;;;;;;;11.65;6.50;;;;;;;19.26;78.67;99618.31;3142189;28;20113;-71
2022/06/07 01:31:34;;;;;;;11.65;6.07;;;;;;;19.26;78.39;99612.19;3142100;28;20537;-72
2022/06/07 01:33:07;;;;;;;14.00;5.90;;;;;;;19.24;78.41;99624.69;3142033;28;20048;-71
2022/06/07 01:34:41;;;;;;;10.35;5.55;;;;;;;19.11;78.34;99609.03;3137273;28;20046;-71
2022/06/07 01:36:15;;;;;;;12.07;6.22;;;;;;;19.18;78.46;99619.91;3141841;28;20525;-71
2022/06/07 01:37:49;;;;;;;8.55;5.63;;;;;;;19.16;78.34;99609.47;3141926;28;20054;-72
2022/06/07 01:43:01;;;;;;;18.73;5.65;;;;;;;19.16;78.32;99617.38;3137147;28;20100;-72
2022/06/07 01:44:38;;;;;;;11.70;5.57;;;;;;;19.12;78.31;99615.97;3142146;28;20127;-71
2022/06/07 01:46:10;;;;;;;10.30;5.43;;;;;;;19.18;78.22;99628.66;3136147;28;20083;-70
2022/06/07 01:47:42;;;;;;;18.23;5.40;;;;;;;19.15;78.16;99623.63;3142095;28;20117;-72
2022/06/07 01:49:12;;;;;;;13.35;5.50;;;;;;;19.07;78.00;99631.34;3142122;28;20049;-72
2022/06/07 01:50:44;;;;;;;11.02;5.43;;;;;;;19.02;77.88;99628.28;3141454;28;20569;-72
2022/06/07 01:52:18;;;;;;;9.15;5.10;;;;;;;18.96;78.09;99621.72;3142004;28;20585;-72
2022/06/07 01:53:52;;;;;;;8.85;4.60;;;;;;;18.91;78.03;99628.31;3141680;28;20598;-71
2022/06/07 01:55:24;;;;;;;10.70;4.88;;;;;;;18.90;77.97;99626.63;3141591;28;20056;-69
2022/06/07 01:56:54;;;;;;;14.63;4.72;;;;;;;18.92;78.11;99632.63;3141689;28;20106;-70
2022/06/07 01:58:26;;;;;;;6.63;4.10;;;;;;;18.88;78.01;99629.41;3141912;28;20131;-70
2022/06/07 01:59:59;;;;;;;12.27;4.88;;;;;;;18.88;77.97;99623.31;3141629;28;20051;-70
2022/06/07 02:01:31;;;;;;;14.35;5.28;;;;;;;18.92;78.10;99630.81;3141760;28;20052;-70
2022/06/07 02:03:03;;;;;;;12.13;3.92;;;;;;;18.91;78.09;99630.97;3141379;28;20052;-70
2022/06/07 02:04:36;;;;;;;5.85;4.32;;;;;;;18.90;78.08;99627.50;3142239;28;20059;-70
2022/06/07 02:06:12;;;;;;;9.25;4.22;;;;;;;18.90;78.06;99622.22;3137715;28;20491;-71
2022/06/07 02:07:47;;;;;;;9.73;4.50;;;;;;;18.91;77.66;99629.16;3138818;28;20136;-71
2022/06/07 02:09:21;;;;;;;11.45;4.20;;;;;;;18.89;77.88;99638.16;3137488;28;20529;-70
2022/06/07 02:10:53;;;;;;;9.65;3.30;;;;;;;18.90;77.60;99647.75;3135803;28;20059;-71
2022/06/07 02:12:29;;;;;;;11.55;4.45;;;;;;;18.76;77.70;99620.72;3133009;28;20084;-70
2022/06/07 02:14:01;;;;;;;12.50;4.28;;;;;;;18.86;77.75;99647.16;3136581;28;20041;-71
2022/06/07 02:15:33;;;;;;;8.27;3.88;;;;;;;18.86;77.90;99650.63;3136592;28;20044;-70
2022/06/07 02:17:06;;;;;;;8.57;4.45;;;;;;;18.88;77.59;99649.69;3137896;28;20082;-70
2022/06/07 02:18:38;;;;;;;7.78;4.72;;;;;;;18.89;77.49;99651.34;3135035;28;20080;-70
2022/06/07 02:20:11;;;;;;;18.15;4.85;;;;;;;18.89;77.42;99651.34;3136698;28;20568;-73
2022/06/07 02:21:43;;;;;;;16.35;5.43;;;;;;;18.86;77.38;99650.63;3136700;28;20316;-71
2022/06/07 02:23:15;;;;;;;10.60;4.93;;;;;;;18.88;77.43;99653.16;3140581;28;20051;-71
2022/06/07 02:24:48;;;;;;;12.75;4.88;;;;;;;18.88;77.76;99647.88;3141482;28;20425;-71
2022/06/07 02:26:28;;;;;;;9.55;5.22;;;;;;;18.89;77.62;99652.19;3141697;28;20052;-70
2022/06/07 02:27:59;;;;;;;18.10;5.47;;;;;;;18.88;77.37;99647.88;3141545;28;20052;-70
2022/06/07 02:29:34;;;;;;;15.20;5.47;;;;;;;18.89;77.49;99661.91;3141399;28;20082;-70
2022/06/07 02:31:07;;;;;;;18.25;6.50;;;;;;;18.89;77.26;99651.34;3135262;28;20059;-69
2022/06/07 02:32:39;;;;;;;;;;;;;;;18.86;77.18;99653.28;3141779;28;20476;-71
2022/06/07 02:34:15;;;;;;;19.38;5.70;;;;;;;18.86;77.23;99660.34;3141273;28;19977;-71
2022/06/07 02:35:47;;;;;;;18.42;5.60;;;;;;;18.84;77.14;99663.13;3141347;28;20052;-70
2022/06/07 02:37:20;;;;;;;17.83;6.70;;;;;;;18.83;77.14;99664.06;3141250;28;20082;-71
2022/06/07 02:38:52;;;;;;;14.70;5.97;;;;;;;18.84;77.09;99664.91;3141129;28;20159;-71
2022/06/07 02:40:25;;;;;;;14.13;5.97;;;;;;;18.84;77.30;99663.13;3141618;28;20048;-70
2022/06/07 02:41:59;;;;;;;14.95;5.80;;;;;;;18.84;77.61;99664.91;3141196;28;20516;-70
2022/06/07 02:43:31;;;;;;;14.63;6.05;;;;;;;18.86;77.91;99674.38;3141061;28;20132;-70
2022/06/07 02:45:04;;;;;;;17.02;5.88;;;;;;;18.85;78.05;99664.81;3141275;28;20084;-70
2022/06/07 02:46:36;;;;;;;21.88;6.28;;;;;;;18.89;78.07;99661.91;3141150;28;20052;-71
2022/06/07 02:48:07;;;;;;;10.10;5.47;;;;;;;18.90;78.02;99663.56;3140865;28;20056;-73
2022/06/07 02:49:39;;;;;;;15.15;6.60;;;;;;;18.91;78.03;99670.53;3141135;28;20577;-71
2022/06/07 02:51:11;;;;;;;15.63;6.25;;;;;;;18.86;78.08;99661.19;3141259;28;20078;-71
2022/06/07 02:52:43;;;;;;;10.98;5.93;;;;;;;18.82;78.16;99657.13;3141104;28;20048;-71
2022/06/07 02:54:16;;;;;;;14.57;6.72;;;;;;;18.89;78.03;99664.56;3141065;28;20056;-71
2022/06/07 02:55:50;;;;;;;12.80;5.32;;;;;;;18.90;78.28;99669.72;3140586;28;20430;-71
2022/06/07 02:57:22;;;;;;;18.50;7.38;;;;;;;18.94;78.43;99659.75;3141209;28;20052;-70
2022/06/07 02:59:05;;;;;;;9.43;6.10;;;;;;;18.95;78.73;99664.03;3141331;28;20055;-71
2022/06/07 03:00:37;;;;;;;11.07;5.80;;;;;;;18.95;78.60;99672.78;3136388;28;20056;-70
2022/06/07 03:02:09;;;;;;;13.18;5.53;;;;;;;18.96;78.92;99677.13;3140753;28;20067;-71
2022/06/07 03:03:41;;;;;;;9.55;6.07;;;;;;;18.96;79.22;99673.63;3143269;28;20175;-71
2022/06/07 03:05:13;;;;;;;9.15;5.55;;;;;;;18.97;78.98;99675.31;3140717;28;20052;-70
2022/06/07 03:06:45;;;;;;;14.35;6.38;;;;;;;18.97;79.11;99676.16;3140650;28;20093;-70
2022/06/07 03:08:18;;;;;;;18.17;5.63;;;;;;;18.97;79.47;99670.03;3140641;28;20063;-70
2022/06/07 03:09:50;;;;;;;15.30;6.00;;;;;;;18.98;79.39;99677.81;3141052;28;20135;-69
2022/06/07 03:11:24;;;;;;;11.13;5.53;;;;;;;18.98;79.60;99669.06;3140886;28;20512;-70
2022/06/07 03:12:55;;;;;;;10.88;5.97;;;;;;;18.99;79.85;99673.38;3140617;28;20052;-69
2022/06/07 03:14:27;;;;;;;6.45;5.07;;;;;;;19.00;79.79;99665.34;3140815;28;20301;-70
2022/06/07 03:15:59;;;;;;;16.55;5.88;;;;;;;19.03;79.91;99665.09;3140669;28;20056;-71
2022/06/07 03:17:31;;;;;;;16.13;6.97;;;;;;;19.05;80.07;99670.25;3140706;28;20110;-70
2022/06/07 03:19:03;;;;;;;14.60;6.63;;;;;;;18.97;80.19;99660.31;3140737;28;20052;-71
2022/06/07 03:20:35;;;;;;;10.80;6.10;;;;;;;19.05;80.29;99665.81;3140875;28;20279;-70
2022/06/07 03:22:09;;;;;;;12.93;5.97;;;;;;;19.02;80.34;99658.16;3140386;28;20633;-70
2022/06/07 03:23:40;;;;;;;15.30;6.00;;;;;;;19.10;80.15;99668.88;3140699;28;20053;-71
2022/06/07 03:25:12;;;;;;;19.80;6.40;;;;;;;19.12;80.21;99670.59;3140784;28;20110;-70
2022/06/07 03:26:45;;;;;;;10.05;6.72;;;;;;;19.11;80.32;99669.75;3140848;28;20055;-70
2022/06/07 03:28:17;;;;;;;24.30;6.80;;;;;;;19.13;80.26;99680.16;3140731;28;20453;-71
2022/06/07 03:29:49;;;;;;;11.65;6.00;;;;;;;19.10;79.96;99675.97;3140168;28;20485;-70
2022/06/07 03:31:21;;;;;;;15.32;5.72;;;;;;;19.09;79.82;99669.03;3140509;28;20117;-71
2022/06/07 03:33:19;;;;;;;12.80;5.85;;;;;;;19.08;79.42;99672.63;3140684;28;20059;-70
2022/06/07 03:34:51;;;;;;;13.07;5.68;;;;;;;19.05;79.19;99678.16;3137554;28;20063;-71
2022/06/07 03:36:25;;;;;;;13.52;6.07;;;;;;;19.00;79.24;99672.44;3140685;28;20075;-71
2022/06/07 03:37:57;;;;;;;9.40;5.15;;;;;;;19.03;79.03;99678.28;3140350;28;20052;-72
2022/06/07 03:39:29;;;;;;;14.77;4.97;;;;;;;19.03;78.59;99678.28;3140532;28;20068;-71
2022/06/07 03:41:01;;;;;;;12.00;5.97;;;;;;;19.06;78.70;99685.13;3140246;28;20052;-71
2022/06/07 03:42:34;;;;;;;19.20;6.28;;;;;;;19.09;78.59;99682.22;3139475;28;20743;-71
2022/06/07 03:44:07;;;;;;;17.17;5.97;;;;;;;19.10;78.60;99678.59;3139906;28;20565;-70
2022/06/07 03:45:39;;;;;;;14.95;6.10;;;;;;;19.14;78.31;99682.69;3140237;28;20052;-70
2022/06/07 03:47:11;;;;;;;13.23;5.13;;;;;;;19.16;78.12;99675.47;3140540;28;20048;-72
2022/06/07 03:48:44;;;;;;;11.68;5.32;;;;;;;19.19;77.96;99674.38;3140461;28;20053;-72
2022/06/07 03:50:16;;;;;;;10.15;4.60;;;;;;;19.19;77.47;99680.47;3140272;28;20064;-71
2022/06/07 03:51:48;;;;;;;10.88;5.40;;;;;;;19.21;77.06;99685.66;3139995;28;20437;-72
2022/06/07 03:53:20;;;;;;;14.48;5.60;;;;;;;19.21;77.03;99678.56;3140527;28;20090;-71
2022/06/07 03:54:52;;;;;;;14.63;6.13;;;;;;;19.20;77.51;99684.81;3140309;28;20048;-70
2022/06/07 03:56:24;;;;;;;17.60;5.25;;;;;;;19.20;77.51;99679.53;3140358;28;20079;-73
2022/06/07 03:57:57;;;;;;;10.52;5.20;;;;;;;19.23;77.00;99683.72;3139786;28;20084;-71
2022/06/07 03:59:29;;;;;;;;;;;;;;;19.20;77.28;99689.25;3144815;28;20051;-71
2022/06/07 04:01:02;;;;;;;11.07;4.95;;;;;;;19.22;76.92;99684.69;3140970;28;20359;-70
2022/06/07 04:02:35;;;;;;;8.98;5.05;;;;;;;19.16;76.87;99680.75;3140207;28;20084;-71
2022/06/07 04:04:09;;;;;;;12.83;5.23;;;;;;;19.20;76.50;99679.53;3140102;28;20059;-71
2022/06/07 04:05:41;;;;;;;9.13;3.38;;;;;;;19.17;75.98;99673.69;3140245;28;20760;-72
2022/06/07 04:09:03;;;;;;;8.90;4.70;;;;;;;19.26;75.83;99681.66;3140147;28;20386;-72
2022/06/07 04:10:35;;;;;;;8.52;4.10;;;;;;;19.23;75.39;99675.81;3140207;28;20101;-70
2022/06/07 04:12:07;;;;;;;10.98;4.80;;;;;;;19.30;74.93;99682.25;3140058;28;20852;-72
2022/06/07 04:13:41;;;;;;;7.80;4.15;;;;;;;19.32;75.10;99686.44;3140256;28;20052;-71
2022/06/07 04:15:12;;;;;;;;;;;;;;;19.30;74.44;99687.53;3140470;28;20293;-70
2022/06/07 04:16:44;;;;;;;7.18;5.10;;;;;;;19.32;74.57;99688.25;3131148;28;19925;-70
2022/06/07 04:18:17;;;;;;;10.05;4.10;;;;;;;19.35;74.11;99687.16;3140776;28;20129;-71
2022/06/07 04:19:48;;;;;;;20.02;4.57;;;;;;;19.39;73.98;99686.75;3140166;28;20061;-70
2022/06/07 04:21:21;;;;;;;7.55;4.13;;;;;;;19.41;73.06;99692.75;3140302;28;20102;-71
2022/06/07 04:22:53;;;;;;;7.38;4.38;;;;;;;19.44;73.02;99694.31;3140253;28;20044;-70
2022/06/07 04:24:25;;;;;;;7.05;3.05;;;;;;;19.47;72.15;99694.88;3140371;28;20080;-71
2022/06/07 04:25:57;;;;;;;12.98;3.95;;;;;;;19.48;71.73;99685.16;3140019;28;20094;-71
2022/06/07 04:27:28;;;;;;;6.75;3.50;;;;;;;19.51;71.49;99687.53;3139948;28;20044;-71
2022/06/07 04:29:02;;;;;;;12.38;3.88;;;;;;;19.55;71.00;99696.84;3140377;28;20048;-69
2022/06/07 04:30:34;;;;;;;9.75;4.07;;;;;;;19.58;71.01;99695.75;3140398;28;20044;-70
2022/06/07 04:32:06;;;;;;;9.82;4.53;;;;;;;19.60;70.57;99691.19;3139989;28;20044;-69
2022/06/07 04:33:38;;;;;;;16.97;4.83;;;;;;;19.64;70.90;99696.09;3140072;28;20060;-70
2022/06/07 04:35:10;;;;;;;12.55;3.92;;;;;;;19.67;70.38;99700.28;3140125;28;20314;-70
2022/06/07 04:36:42;;;;;;;10.82;4.18;;;;;;;19.68;69.65;99694.06;3140081;28;20060;-70
2022/06/07 04:38:13;;;;;;;8.90;4.22;;;;;;;19.70;70.49;99697.41;3139928;28;20419;-70
2022/06/07 04:39:45;;;;;;;10.50;3.92;;;;;;;19.73;70.45;99694.53;3139749;28;20082;-70
2022/06/07 04:41:19;;;;;;;15.77;4.30;;;;;;;19.74;69.74;99694.38;3136022;28;20239;-70
2022/06/07 04:42:51;;;;;;;11.18;3.97;;;;;;;19.77;69.79;99691.47;3139936;28;20052;-70
2022/06/07 04:44:24;;;;;;;20.25;4.95;;;;;;;19.68;70.10;99673.75;3139875;28;20113;-69
2022/06/07 04:46:03;;;;;;;;;;;;;;;19.83;70.02;99697.22;3140478;28;20041;-73
2022/06/07 04:47:34;;;;;;;5.82;3.70;;;;;;;19.85;69.61;99705.84;3140161;28;19986;-73
2022/06/07 04:49:06;;;;;;;11.95;4.22;;;;;;;19.85;68.78;99705.84;3139563;28;20427;-73
2022/06/07 04:50:38;;;;;;;6.82;4.28;;;;;;;19.94;69.41;99713.00;3140179;28;20452;-72
2022/06/07 04:52:10;;;;;;;12.57;3.40;;;;;;;19.97;69.38;99707.44;3139891;28;20086;-71
2022/06/07 04:53:42;;;;;;;8.15;3.20;;;;;;;19.96;68.68;99705.75;3141509;28;20122;-72
2022/06/07 04:55:15;;;;;;;10.07;3.57;;;;;;;19.97;68.36;99710.09;3142620;28;20052;-72
2022/06/07 04:56:47;;;;;;;7.68;3.67;;;;;;;20.02;68.35;99704.38;3142313;28;20819;-73
2022/06/07 04:58:19;;;;;;;7.38;3.55;;;;;;;20.08;68.41;99712.63;3142282;28;20048;-73
2022/06/07 04:59:52;;;;;;;10.15;4.38;;;;;;;20.14;68.73;99709.47;3142487;28;20494;-74
2022/06/07 05:01:28;;;;;;;11.13;6.22;;;;;;;20.17;69.54;99719.78;3142444;28;20052;-73
2022/06/07 05:03:00;;;;;;;9.38;5.88;;;;;;;20.20;70.10;99716.88;3139521;28;20065;-71
2022/06/07 05:04:32;;;;;;;19.15;6.25;;;;;;;20.23;70.19;99724.53;3142542;28;20056;-70
2022/06/07 05:06:04;;;;;;;10.25;7.00;;;;;;;20.27;70.15;99721.63;3142568;28;20056;-70
2022/06/07 05:07:37;;;;;;;15.65;7.68;;;;;;;20.29;70.43;99724.94;3142413;28;20110;-70
2022/06/07 05:09:13;;;;;;;17.95;7.10;;;;;;;20.29;70.50;99717.88;3142146;28;20533;-72
2022/06/07 05:10:45;;;;;;;16.00;7.75;;;;;;;20.33;71.37;99718.44;3142240;28;20071;-73
2022/06/07 05:12:17;;;;;;;15.07;7.97;;;;;;;20.37;72.05;99723.31;3142290;28;20568;-72
2022/06/07 05:13:49;;;;;;;11.80;7.95;;;;;;;20.42;72.39;99736.16;3142201;28;20083;-72
2022/06/07 05:15:22;;;;;;;21.10;7.95;;;;;;;20.49;72.70;99729.34;3142270;28;20548;-71
2022/06/07 05:16:54;;;;;;;22.23;8.85;;;;;;;20.50;73.19;99738.13;3142326;28;20111;-70
2022/06/07 05:18:26;;;;;;;16.83;8.20;;;;;;;20.54;73.50;99736.94;3142100;28;20109;-71
2022/06/07 05:19:58;;;;;;;18.30;7.88;;;;;;;20.55;73.29;99731.47;3142203;28;20071;-73
2022/06/07 05:21:30;;;;;;;16.33;8.15;;;;;;;20.61;73.27;99738.03;3142181;28;20052;-71
2022/06/07 05:23:02;;;;;;;18.45;7.80;;;;;;;20.65;73.31;99734.19;3142130;28;20822;-73
2022/06/07 05:24:35;;;;;;;13.63;7.53;;;;;;;20.58;73.04;99736.50;3142295;28;20056;-73
2022/06/07 05:26:15;;;;;;;15.23;8.52;;;;;;;20.52;73.38;99739.69;3142097;28;20067;-72
2022/06/07 05:27:51;;;;;;;18.73;8.32;;;;;;;20.53;73.20;99738.75;3141994;28;20294;-73
2022/06/07 05:29:27;;;;;;;16.15;8.68;;;;;;;20.56;73.26;99743.75;3141852;28;20052;-71
2022/06/07 05:31:01;;;;;;;18.10;10.20;;;;;;;20.60;73.71;99742.50;3142340;28;20052;-71
2022/06/07 05:32:32;;;;;;;16.58;8.52;;;;;;;20.62;73.87;99743.22;3142337;28;20453;-72
2022/06/07 05:34:04;;;;;;;16.42;9.15;;;;;;;20.66;73.94;99738.47;3141570;28;20110;-71
2022/06/07 05:35:36;;;;;;;14.52;7.90;;;;;;;20.71;73.61;99741.56;3142104;28;20070;-72
2022/06/07 05:37:12;;;;;;;14.85;8.25;;;;;;;20.76;73.66;99741.16;3142035;28;20052;-72
2022/06/07 05:38:43;;;;;;;17.88;7.80;;;;;;;20.79;73.53;99741.72;3141959;28;20044;-66
2022/06/07 05:40:15;;;;;;;14.45;8.73;;;;;;;20.85;73.41;99746.47;3142083;28;20049;-68
2022/06/07 05:41:47;;;;;;;17.48;8.20;;;;;;;20.85;72.61;99742.97;3141736;28;20056;-69
2022/06/07 05:43:19;;;;;;;18.10;7.60;;;;;;;20.87;72.43;99746.31;3142030;28;20059;-67
2022/06/07 05:44:51;;;;;;;17.02;7.30;;;;;;;20.88;71.98;99746.22;3141545;28;20615;-67
2022/06/07 05:46:24;;;;;;;18.23;7.28;;;;;;;20.93;71.67;99740.50;3141157;28;20102;-70
2022/06/07 05:47:56;;;;;;;;;;;;;;;20.94;71.04;99734.25;3142352;28;20083;-66
2022/06/07 05:49:28;;;;;;;12.27;6.38;;;;;;;20.93;70.50;99737.00;3141359;28;20014;-66
2022/06/07 05:51:00;;;;;;;21.98;6.13;;;;;;;20.90;70.09;99733.66;3141479;28;20052;-67
2022/06/07 05:52:32;;;;;;;36.90;14.60;;;;;;;20.94;69.85;99739.53;3143283;28;20122;-69
2022/06/07 05:54:04;;;;;;;10.63;6.90;;;;;;;20.99;68.98;99739.09;3141861;28;20643;-71
2022/06/07 05:55:35;;;;;;;10.63;4.47;;;;;;;21.06;68.03;99740.22;3141468;28;20057;-71
2022/06/07 05:57:08;;;;;;;11.52;4.80;;;;;;;21.11;67.10;99730.06;3141557;28;20114;-69
2022/06/07 05:58:40;;;;;;;9.47;4.63;;;;;;;21.13;66.35;99733.41;3141757;28;20052;-67
2022/06/07 06:00:13;;;;;;;23.23;5.13;;;;;;;21.19;66.06;99726.72;3141897;28;20314;-70
2022/06/07 06:01:46;;;;;;;8.43;4.82;;;;;;;21.23;65.92;99728.94;3141425;28;20052;-68
2022/06/07 06:03:18;;;;;;;9.63;4.72;;;;;;;21.26;65.47;99726.00;3141381;28;20434;-67
2022/06/07 06:04:50;;;;;;;14.10;5.68;;;;;;;21.32;65.25;99729.91;3140848;28;20105;-67
2022/06/07 06:06:23;;;;;;;8.35;4.93;;;;;;;21.36;65.24;99720.75;3142130;28;20084;-68
2022/06/07 06:11:48;;;;;;;9.80;5.13;;;;;;;21.51;64.15;99722.00;3102805;28;20115;-65
2022/06/07 06:13:20;;;;;;;8.75;4.57;;;;;;;21.51;63.44;99716.69;3102243;28;20054;-65
2022/06/07 06:14:51;;;;;;;11.18;5.13;;;;;;;21.45;63.53;99708.50;3102753;28;20057;-65
2022/06/07 06:16:24;;;;;;;9.05;5.60;;;;;;;21.44;63.61;99710.28;3103857;28;20075;-66
2022/06/07 06:17:58;;;;;;;14.10;6.47;;;;;;;21.50;64.23;99716.81;3132939;28;20045;-65
2022/06/07 06:19:29;;;;;;;;;;;;;;;21.45;64.01;99714.63;3132439;28;20049;-65
2022/06/07 06:21:00;;;;;;;13.52;5.30;;;;;;;21.45;64.05;99717.28;3136282;28;19925;-64
2022/06/07 06:22:34;;;;;;;16.52;6.50;;;;;;;21.46;64.28;99710.97;3137386;28;20464;-66
2022/06/07 06:24:09;;;;;;;12.20;6.55;;;;;;;21.45;64.45;99705.84;3137520;28;20525;-70
2022/06/07 06:25:54;;;;;;;15.43;6.10;;;;;;;21.55;64.08;99715.44;3140454;28;20109;-65
2022/06/07 06:27:26;;;;;;;11.20;5.70;;;;;;;21.59;64.45;99708.03;3141149;28;20110;-64
2022/06/07 06:28:58;;;;;;;10.80;5.50;;;;;;;21.54;63.45;99702.34;3140984;28;20143;-65
2022/06/07 06:30:30;;;;;;;10.82;3.55;;;;;;;21.59;61.14;99713.31;3141377;28;20044;-66
2022/06/07 06:32:02;;;;;;;9.30;3.90;;;;;;;21.66;61.29;99709.16;3141051;28;20105;-67
2022/06/07 06:33:38;;;;;;;12.10;3.65;;;;;;;21.76;61.29;99706.47;3141232;28;20547;-66
2022/06/07 06:35:10;;;;;;;7.65;4.00;;;;;;;21.85;61.02;99712.72;3139264;28;20074;-67
2022/06/07 06:36:42;;;;;;;13.52;4.28;;;;;;;21.91;60.67;99707.69;3140542;28;20048;-67
2022/06/07 06:38:14;;;;;;;8.38;4.28;;;;;;;22.03;60.71;99703.88;3141083;28;20094;-66
2022/06/07 06:39:46;;;;;;;9.20;4.00;;;;;;;21.96;60.09;99686.88;3141245;28;20619;-66
2022/06/07 06:41:20;;;;;;;12.93;4.07;;;;;;;22.15;59.92;99707.16;3140687;28;20044;-67
2022/06/07 06:42:52;;;;;;;12.45;4.43;;;;;;;22.26;59.95;99706.19;3141152;28;20465;-67
2022/06/07 06:44:24;;;;;;;8.65;3.88;;;;;;;22.31;59.21;99709.25;3141298;28;20090;-69
2022/06/07 06:46:04;;;;;;;7.82;3.53;;;;;;;22.38;57.83;99704.19;3141011;28;20052;-70
2022/06/07 06:47:36;;;;;;;10.63;4.00;;;;;;;22.39;57.52;99706.69;3141158;28;20434;-65
2022/06/07 06:49:12;;;;;;;9.32;4.07;;;;;;;22.41;57.29;99703.88;3145085;28;20449;-67
2022/06/07 06:50:45;;;;;;;17.25;4.65;;;;;;;22.44;57.24;99704.41;3141334;28;20090;-68
2022/06/07 06:52:17;;;;;;;9.02;3.65;;;;;;;22.45;56.79;99698.16;3141509;28;20052;-66
2022/06/07 06:53:49;;;;;;;2.65;2.00;;;;;;;22.52;55.58;99708.16;3141182;28;20521;-67
2022/06/07 06:55:21;;;;;;;8.37;2.33;;;;;;;22.53;55.47;99699.22;3140976;28;20110;-67
2022/06/07 06:56:54;;;;;;;9.93;2.78;;;;;;;22.65;55.05;99706.81;3140903;28;20375;-68
2022/06/07 06:58:26;;;;;;;9.70;3.13;;;;;;;22.61;54.09;99697.47;3141258;28;20121;-67
2022/06/07 06:59:58;;;;;;;6.22;2.55;;;;;;;22.73;53.67;99707.91;3140953;28;20086;-65
2022/06/07 07:01:32;;;;;;;5.72;2.35;;;;;;;22.80;53.84;99704.47;3141015;28;20056;-63
2022/06/07 07:03:04;;;;;;;1.50;1.20;;;;;;;22.89;52.75;99705.41;3131083;28;20057;-66
2022/06/07 07:04:38;;;;;;;4.18;1.92;;;;;;;22.96;51.58;99703.03;3135094;28;20201;-65
2022/06/07 07:06:12;;;;;;;2.45;1.55;;;;;;;23.00;50.06;99699.06;3135480;28;20510;-67
2022/06/07 07:07:46;;;;;;;2.17;1.30;;;;;;;23.03;49.51;99693.47;3140817;28;20044;-65
2022/06/07 07:09:22;;;;;;;4.97;1.70;;;;;;;23.10;48.78;99700.69;3140824;28;20055;-66
2022/06/07 07:11:03;;;;;;;5.53;1.40;;;;;;;23.16;48.91;99694.75;3139974;28;20052;-65
2022/06/07 07:12:36;;;;;;;4.18;1.80;;;;;;;23.23;49.25;99696.78;3140820;28;20492;-65
2022/06/07 07:14:09;;;;;;;3.38;1.90;;;;;;;23.28;49.33;99689.19;3135796;28;20559;-65
2022/06/07 07:15:46;;;;;;;8.90;2.58;;;;;;;23.34;48.55;99689.41;3131728;28;20055;-64
2022/06/07 07:17:19;;;;;;;5.05;2.30;;;;;;;23.44;49.14;99693.81;3138867;28;20162;-68
2022/06/07 07:18:51;;;;;;;6.97;2.40;;;;;;;23.51;49.60;99689.53;3138196;28;20055;-67
2022/06/07 07:20:24;;;;;;;7.35;2.60;;;;;;;23.60;49.08;99699.22;3138378;28;20423;-68
2022/06/07 07:21:56;;;;;;;;;;;;;;;23.65;49.27;99693.44;3135452;28;20110;-68
2022/06/07 07:23:28;;;;;;;9.90;2.28;;;;;;;23.66;48.79;99687.13;3136532;28;19925;-68
2022/06/07 07:24:59;;;;;;;9.23;2.55;;;;;;;23.70;48.54;99699.19;3134045;28;20056;-68
2022/06/07 07:26:32;;;;;;;4.80;2.38;;;;;;;23.69;48.05;99685.00;3137469;28;20049;-68
2022/06/07 07:28:05;;;;;;;9.63;3.60;;;;;;;23.69;47.54;99681.50;3139082;28;20052;-69
2022/06/07 07:29:39;;;;;;;4.72;2.67;;;;;;;23.72;47.48;99683.88;3137263;28;20052;-68